sensor_id;sensor_type;location;lat;lon;timestamp;P1;durP1;ratioP1;P2;durP2;ratioP2
7359;SDS011;3720;48.274;7.796;2022-09-09T00:00:49;4.47;;;1.10;;
7359;SDS011;3720;48.274;7.796;2022-09-09T00:03:27;4.18;;;1.15;;
7359;SDS011;3720;48.274;7.796;2022-09-09T00:06:06;2.58;;;0.90;;
7359;SDS011;3720;48.274;7.796;2022-09-09T00:08:45;4.82;;;1.40;;
7359;SDS011;3720;48.274;7.796;2022-09-09T00:11:28;4.90;;;1.40;;
7359;SDS011;3720;48.274;7.796;2022-09-09T00:14:08;4.93;;;1.20;;
7359;SDS011;3720;48.274;7.796;2022-09-09T00:16:47;2.40;;;1.10;;
7359;SDS011;3720;48.274;7.796;2022-09-09T00:19:27;4.97;;;1.23;;
7359;SDS011;3720;48.274;7.796;2022-09-09T00:22:08;5.07;;;1.10;;
7359;SDS011;3720;48.274;7.796;2022-09-09T00:24:48;4.28;;;1.13;;
7359;SDS011;3720;48.274;7.796;2022-09-09T00:27:25;5.32;;;1.20;;
7359;SDS011;3720;48.274;7.796;2022-09-09T00:30:12;5.80;;;1.10;;
7359;SDS011;3720;48.274;7.796;2022-09-09T00:32:50;7.05;;;1.40;;
7359;SDS011;3720;48.274;7.796;2022-09-09T00:35:29;4.30;;;1.10;;
7359;SDS011;3720;48.274;7.796;2022-09-09T00:38:05;4.05;;;1.20;;
7359;SDS011;3720;48.274;7.796;2022-09-09T00:40:45;3.33;;;0.90;;
7359;SDS011;3720;48.274;7.796;2022-09-09T00:43:27;4.05;;;1.10;;
7359;SDS011;3720;48.274;7.796;2022-09-09T00:46:14;3.40;;;0.85;;
7359;SDS011;3720;48.274;7.796;2022-09-09T00:49:04;1.95;;;0.73;;
7359;SDS011;3720;48.274;7.796;2022-09-09T00:51:47;2.85;;;0.80;;
7359;SDS011;3720;48.274;7.796;2022-09-09T00:54:33;4.07;;;0.75;;
7359;SDS011;3720;48.274;7.796;2022-09-09T00:57:19;2.78;;;0.60;;
7359;SDS011;3720;48.274;7.796;2022-09-09T01:02:53;2.55;;;0.60;;
7359;SDS011;3720;48.274;7.796;2022-09-09T01:05:39;3.92;;;0.65;;
7359;SDS011;3720;48.274;7.796;2022-09-09T01:08:21;2.25;;;0.50;;
7359;SDS011;3720;48.274;7.796;2022-09-09T01:11:06;2.30;;;0.55;;
7359;SDS011;3720;48.274;7.796;2022-09-09T01:13:47;2.15;;;0.60;;
7359;SDS011;3720;48.274;7.796;2022-09-09T01:16:26;3.97;;;0.80;;
7359;SDS011;3720;48.274;7.796;2022-09-09T01:18:58;1.35;;;0.50;;
7359;SDS011;3720;48.274;7.796;2022-09-09T01:21:34;1.75;;;0.47;;
7359;SDS011;3720;48.274;7.796;2022-09-09T01:24:18;1.55;;;0.50;;
7359;SDS011;3720;48.274;7.796;2022-09-09T01:26:56;0.95;;;0.55;;
7359;SDS011;3720;48.274;7.796;2022-09-09T01:29:30;2.42;;;0.90;;
7359;SDS011;3720;48.274;7.796;2022-09-09T01:32:02;1.88;;;0.45;;
7359;SDS011;3720;48.274;7.796;2022-09-09T01:34:49;3.03;;;0.68;;
7359;SDS011;3720;48.274;7.796;2022-09-09T01:37:22;1.58;;;0.60;;
7359;SDS011;3720;48.274;7.796;2022-09-09T01:39:54;1.58;;;0.60;;
7359;SDS011;3720;48.274;7.796;2022-09-09T01:42:27;2.40;;;0.50;;
7359;SDS011;3720;48.274;7.796;2022-09-09T01:45:00;1.27;;;0.40;;
7359;SDS011;3720;48.274;7.796;2022-09-09T01:47:32;0.90;;;0.40;;
7359;SDS011;3720;48.274;7.796;2022-09-09T01:50:04;2.50;;;0.57;;
7359;SDS011;3720;48.274;7.796;2022-09-09T01:52:37;1.92;;;0.60;;
7359;SDS011;3720;48.274;7.796;2022-09-09T01:55:09;2.65;;;0.50;;
7359;SDS011;3720;48.274;7.796;2022-09-09T01:57:45;2.58;;;0.50;;
7359;SDS011;3720;48.274;7.796;2022-09-09T02:00:23;3.35;;;0.70;;
7359;SDS011;3720;48.274;7.796;2022-09-09T02:02:56;2.42;;;0.60;;
7359;SDS011;3720;48.274;7.796;2022-09-09T02:05:36;2.63;;;0.70;;
7359;SDS011;3720;48.274;7.796;2022-09-09T02:08:10;1.65;;;0.70;;
7359;SDS011;3720;48.274;7.796;2022-09-09T02:10:47;3.05;;;0.90;;
7359;SDS011;3720;48.274;7.796;2022-09-09T02:13:27;1.00;;;0.57;;
7359;SDS011;3720;48.274;7.796;2022-09-09T02:16:04;2.38;;;0.80;;
7359;SDS011;3720;48.274;7.796;2022-09-09T02:18:40;2.40;;;0.70;;
7359;SDS011;3720;48.274;7.796;2022-09-09T02:21:16;2.85;;;0.70;;
7359;SDS011;3720;48.274;7.796;2022-09-09T02:23:49;3.25;;;0.80;;
7359;SDS011;3720;48.274;7.796;2022-09-09T02:26:23;2.42;;;0.80;;
7359;SDS011;3720;48.274;7.796;2022-09-09T02:28:59;2.40;;;0.82;;
7359;SDS011;3720;48.274;7.796;2022-09-09T02:31:35;2.30;;;0.70;;
7359;SDS011;3720;48.274;7.796;2022-09-09T02:34:09;4.35;;;0.90;;
7359;SDS011;3720;48.274;7.796;2022-09-09T02:36:44;4.18;;;0.90;;
7359;SDS011;3720;48.274;7.796;2022-09-09T02:39:19;3.08;;;0.80;;
7359;SDS011;3720;48.274;7.796;2022-09-09T02:41:51;1.00;;;0.65;;
7359;SDS011;3720;48.274;7.796;2022-09-09T02:44:24;3.30;;;0.80;;
7359;SDS011;3720;48.274;7.796;2022-09-09T02:47:04;3.75;;;0.80;;
7359;SDS011;3720;48.274;7.796;2022-09-09T02:49:50;3.60;;;0.95;;
7359;SDS011;3720;48.274;7.796;2022-09-09T02:52:31;2.17;;;0.85;;
7359;SDS011;3720;48.274;7.796;2022-09-09T02:55:11;2.83;;;1.10;;
7359;SDS011;3720;48.274;7.796;2022-09-09T02:57:49;7.15;;;1.30;;
7359;SDS011;3720;48.274;7.796;2022-09-09T03:00:24;3.63;;;1.30;;
7359;SDS011;3720;48.274;7.796;2022-09-09T03:02:57;5.72;;;1.27;;
7359;SDS011;3720;48.274;7.796;2022-09-09T03:05:29;4.55;;;1.23;;
7359;SDS011;3720;48.274;7.796;2022-09-09T03:08:01;5.15;;;1.38;;
7359;SDS011;3720;48.274;7.796;2022-09-09T03:10:35;4.20;;;1.20;;
7359;SDS011;3720;48.274;7.796;2022-09-09T03:13:08;6.13;;;1.30;;
7359;SDS011;3720;48.274;7.796;2022-09-09T03:15:42;4.03;;;1.35;;
7359;SDS011;3720;48.274;7.796;2022-09-09T03:18:15;5.60;;;1.45;;
7359;SDS011;3720;48.274;7.796;2022-09-09T03:20:46;4.15;;;1.30;;
7359;SDS011;3720;48.274;7.796;2022-09-09T03:23:21;5.55;;;1.33;;
7359;SDS011;3720;48.274;7.796;2022-09-09T03:25:53;4.05;;;1.50;;
7359;SDS011;3720;48.274;7.796;2022-09-09T03:28:27;4.22;;;1.38;;
7359;SDS011;3720;48.274;7.796;2022-09-09T03:31:03;3.70;;;1.27;;
7359;SDS011;3720;48.274;7.796;2022-09-09T03:33:36;3.03;;;1.23;;
7359;SDS011;3720;48.274;7.796;2022-09-09T03:36:08;3.97;;;1.20;;
7359;SDS011;3720;48.274;7.796;2022-09-09T03:38:40;5.63;;;1.27;;
7359;SDS011;3720;48.274;7.796;2022-09-09T03:41:12;6.03;;;1.20;;
7359;SDS011;3720;48.274;7.796;2022-09-09T03:43:44;3.67;;;1.70;;
7359;SDS011;3720;48.274;7.796;2022-09-09T03:46:18;3.63;;;1.40;;
7359;SDS011;3720;48.274;7.796;2022-09-09T03:48:50;4.72;;;1.30;;
7359;SDS011;3720;48.274;7.796;2022-09-09T03:51:23;5.80;;;1.50;;
7359;SDS011;3720;48.274;7.796;2022-09-09T03:53:55;5.95;;;1.27;;
7359;SDS011;3720;48.274;7.796;2022-09-09T03:56:28;2.63;;;1.30;;
7359;SDS011;3720;48.274;7.796;2022-09-09T03:59:00;5.53;;;1.42;;
7359;SDS011;3720;48.274;7.796;2022-09-09T04:01:33;3.13;;;1.15;;
7359;SDS011;3720;48.274;7.796;2022-09-09T04:04:06;5.25;;;1.38;;
7359;SDS011;3720;48.274;7.796;2022-09-09T04:06:38;5.50;;;1.60;;
7359;SDS011;3720;48.274;7.796;2022-09-09T04:09:11;5.32;;;1.30;;
7359;SDS011;3720;48.274;7.796;2022-09-09T04:11:43;5.05;;;1.50;;
7359;SDS011;3720;48.274;7.796;2022-09-09T04:14:15;2.13;;;1.17;;
7359;SDS011;3720;48.274;7.796;2022-09-09T04:16:48;7.57;;;1.20;;
7359;SDS011;3720;48.274;7.796;2022-09-09T04:19:20;4.60;;;1.35;;
7359;SDS011;3720;48.274;7.796;2022-09-09T04:21:52;3.72;;;1.27;;
7359;SDS011;3720;48.274;7.796;2022-09-09T04:24:24;4.80;;;1.38;;
7359;SDS011;3720;48.274;7.796;2022-09-09T04:26:59;6.22;;;1.40;;
7359;SDS011;3720;48.274;7.796;2022-09-09T04:29:30;3.25;;;1.13;;
7359;SDS011;3720;48.274;7.796;2022-09-09T04:32:04;2.60;;;1.20;;
7359;SDS011;3720;48.274;7.796;2022-09-09T04:34:36;5.47;;;1.40;;
7359;SDS011;3720;48.274;7.796;2022-09-09T04:37:08;7.88;;;1.42;;
7359;SDS011;3720;48.274;7.796;2022-09-09T04:39:40;4.32;;;1.45;;
7359;SDS011;3720;48.274;7.796;2022-09-09T04:42:12;5.55;;;1.27;;
7359;SDS011;3720;48.274;7.796;2022-09-09T04:44:44;7.93;;;1.33;;
7359;SDS011;3720;48.274;7.796;2022-09-09T04:47:18;4.30;;;1.33;;
7359;SDS011;3720;48.274;7.796;2022-09-09T04:49:50;4.78;;;1.38;;
7359;SDS011;3720;48.274;7.796;2022-09-09T04:52:24;5.90;;;1.45;;
7359;SDS011;3720;48.274;7.796;2022-09-09T04:54:56;6.18;;;1.45;;
7359;SDS011;3720;48.274;7.796;2022-09-09T04:57:28;5.00;;;1.30;;
7359;SDS011;3720;48.274;7.796;2022-09-09T05:00:03;5.80;;;1.50;;
7359;SDS011;3720;48.274;7.796;2022-09-09T05:02:38;4.97;;;1.48;;
7359;SDS011;3720;48.274;7.796;2022-09-09T05:05:10;4.53;;;1.30;;
7359;SDS011;3720;48.274;7.796;2022-09-09T05:07:42;5.40;;;1.20;;
7359;SDS011;3720;48.274;7.796;2022-09-09T05:10:14;3.33;;;1.30;;
7359;SDS011;3720;48.274;7.796;2022-09-09T05:12:51;3.58;;;1.23;;
7359;SDS011;3720;48.274;7.796;2022-09-09T05:15:24;4.85;;;1.25;;
7359;SDS011;3720;48.274;7.796;2022-09-09T05:17:58;4.43;;;1.20;;
7359;SDS011;3720;48.274;7.796;2022-09-09T05:20:32;3.10;;;1.10;;
7359;SDS011;3720;48.274;7.796;2022-09-09T05:23:04;2.80;;;1.17;;
7359;SDS011;3720;48.274;7.796;2022-09-09T05:25:36;2.58;;;1.25;;
7359;SDS011;3720;48.274;7.796;2022-09-09T05:28:08;6.63;;;1.20;;
7359;SDS011;3720;48.274;7.796;2022-09-09T05:30:41;4.03;;;1.10;;
7359;SDS011;3720;48.274;7.796;2022-09-09T05:33:15;3.83;;;1.05;;
7359;SDS011;3720;48.274;7.796;2022-09-09T05:35:46;1.95;;;1.00;;
7359;SDS011;3720;48.274;7.796;2022-09-09T05:38:19;4.13;;;1.20;;
7359;SDS011;3720;48.274;7.796;2022-09-09T05:40:50;4.40;;;1.30;;
7359;SDS011;3720;48.274;7.796;2022-09-09T05:43:23;3.83;;;1.25;;
7359;SDS011;3720;48.274;7.796;2022-09-09T05:45:59;6.65;;;1.42;;
7359;SDS011;3720;48.274;7.796;2022-09-09T05:48:35;5.63;;;1.40;;
7359;SDS011;3720;48.274;7.796;2022-09-09T05:51:10;4.40;;;1.20;;
7359;SDS011;3720;48.274;7.796;2022-09-09T05:53:45;4.40;;;1.20;;
7359;SDS011;3720;48.274;7.796;2022-09-09T05:56:18;5.43;;;1.20;;
7359;SDS011;3720;48.274;7.796;2022-09-09T05:58:52;2.22;;;1.10;;
7359;SDS011;3720;48.274;7.796;2022-09-09T06:01:25;4.35;;;1.40;;
7359;SDS011;3720;48.274;7.796;2022-09-09T06:04:00;4.70;;;1.20;;
7359;SDS011;3720;48.274;7.796;2022-09-09T06:06:33;3.05;;;1.35;;
7359;SDS011;3720;48.274;7.796;2022-09-09T06:09:07;7.32;;;1.10;;
7359;SDS011;3720;48.274;7.796;2022-09-09T06:11:41;3.58;;;1.10;;
7359;SDS011;3720;48.274;7.796;2022-09-09T06:14:14;4.30;;;1.08;;
7359;SDS011;3720;48.274;7.796;2022-09-09T06:16:48;3.38;;;1.05;;
7359;SDS011;3720;48.274;7.796;2022-09-09T06:19:21;6.20;;;1.45;;
7359;SDS011;3720;48.274;7.796;2022-09-09T06:21:54;4.60;;;1.30;;
7359;SDS011;3720;48.274;7.796;2022-09-09T06:24:26;3.83;;;1.17;;
7359;SDS011;3720;48.274;7.796;2022-09-09T06:27:00;6.22;;;1.13;;
7359;SDS011;3720;48.274;7.796;2022-09-09T06:29:32;4.05;;;1.15;;
7359;SDS011;3720;48.274;7.796;2022-09-09T06:32:04;5.28;;;1.27;;
7359;SDS011;3720;48.274;7.796;2022-09-09T06:34:39;6.90;;;1.27;;
7359;SDS011;3720;48.274;7.796;2022-09-09T06:37:11;5.53;;;1.20;;
7359;SDS011;3720;48.274;7.796;2022-09-09T06:39:43;7.95;;;1.10;;
7359;SDS011;3720;48.274;7.796;2022-09-09T06:42:15;10.05;;;1.20;;
7359;SDS011;3720;48.274;7.796;2022-09-09T06:44:47;5.82;;;1.20;;
7359;SDS011;3720;48.274;7.796;2022-09-09T06:47:20;6.47;;;1.20;;
7359;SDS011;3720;48.274;7.796;2022-09-09T06:49:53;4.05;;;1.13;;
7359;SDS011;3720;48.274;7.796;2022-09-09T06:52:26;4.32;;;1.20;;
7359;SDS011;3720;48.274;7.796;2022-09-09T06:54:58;6.72;;;1.27;;
7359;SDS011;3720;48.274;7.796;2022-09-09T06:57:30;5.97;;;1.20;;
7359;SDS011;3720;48.274;7.796;2022-09-09T07:00:02;3.95;;;1.00;;
7359;SDS011;3720;48.274;7.796;2022-09-09T07:02:36;5.60;;;1.08;;
7359;SDS011;3720;48.274;7.796;2022-09-09T07:05:10;6.55;;;1.40;;
7359;SDS011;3720;48.274;7.796;2022-09-09T07:07:42;3.28;;;1.17;;
7359;SDS011;3720;48.274;7.796;2022-09-09T07:10:14;4.93;;;1.15;;
7359;SDS011;3720;48.274;7.796;2022-09-09T07:12:49;4.38;;;1.20;;
7359;SDS011;3720;48.274;7.796;2022-09-09T07:15:23;4.43;;;1.38;;
7359;SDS011;3720;48.274;7.796;2022-09-09T07:17:54;6.15;;;1.30;;
7359;SDS011;3720;48.274;7.796;2022-09-09T07:20:28;5.70;;;1.42;;
7359;SDS011;3720;48.274;7.796;2022-09-09T07:22:59;5.50;;;1.30;;
7359;SDS011;3720;48.274;7.796;2022-09-09T07:25:31;4.18;;;1.00;;
7359;SDS011;3720;48.274;7.796;2022-09-09T07:28:03;4.53;;;0.98;;
7359;SDS011;3720;48.274;7.796;2022-09-09T07:30:35;4.55;;;1.02;;
7359;SDS011;3720;48.274;7.796;2022-09-09T07:33:07;3.83;;;1.10;;
7359;SDS011;3720;48.274;7.796;2022-09-09T07:35:41;3.50;;;1.10;;
7359;SDS011;3720;48.274;7.796;2022-09-09T07:38:13;6.32;;;1.20;;
7359;SDS011;3720;48.274;7.796;2022-09-09T07:40:45;4.43;;;1.10;;
7359;SDS011;3720;48.274;7.796;2022-09-09T07:43:17;3.97;;;1.10;;
7359;SDS011;3720;48.274;7.796;2022-09-09T07:45:56;3.97;;;1.10;;
7359;SDS011;3720;48.274;7.796;2022-09-09T07:48:29;5.22;;;1.00;;
7359;SDS011;3720;48.274;7.796;2022-09-09T07:51:06;5.03;;;1.30;;
7359;SDS011;3720;48.274;7.796;2022-09-09T07:53:41;7.75;;;1.10;;
7359;SDS011;3720;48.274;7.796;2022-09-09T07:56:15;4.90;;;1.08;;
7359;SDS011;3720;48.274;7.796;2022-09-09T07:58:48;4.68;;;1.10;;
7359;SDS011;3720;48.274;7.796;2022-09-09T08:01:21;3.58;;;1.10;;
7359;SDS011;3720;48.274;7.796;2022-09-09T08:03:55;4.88;;;1.10;;
7359;SDS011;3720;48.274;7.796;2022-09-09T08:06:33;4.47;;;0.90;;
7359;SDS011;3720;48.274;7.796;2022-09-09T08:09:07;3.88;;;1.30;;
7359;SDS011;3720;48.274;7.796;2022-09-09T08:11:40;5.93;;;1.05;;
7359;SDS011;3720;48.274;7.796;2022-09-09T08:14:14;5.82;;;1.10;;
7359;SDS011;3720;48.274;7.796;2022-09-09T08:16:47;9.20;;;1.08;;
7359;SDS011;3720;48.274;7.796;2022-09-09T08:19:19;5.70;;;1.10;;
7359;SDS011;3720;48.274;7.796;2022-09-09T08:21:53;4.85;;;1.13;;
7359;SDS011;3720;48.274;7.796;2022-09-09T08:24:24;4.90;;;0.88;;
7359;SDS011;3720;48.274;7.796;2022-09-09T08:26:56;3.80;;;0.93;;
7359;SDS011;3720;48.274;7.796;2022-09-09T08:29:28;9.85;;;1.17;;
7359;SDS011;3720;48.274;7.796;2022-09-09T08:32:00;5.55;;;1.00;;
7359;SDS011;3720;48.274;7.796;2022-09-09T08:34:32;5.38;;;1.20;;
7359;SDS011;3720;48.274;7.796;2022-09-09T08:37:07;7.93;;;1.20;;
7359;SDS011;3720;48.274;7.796;2022-09-09T08:39:38;3.63;;;1.08;;
7359;SDS011;3720;48.274;7.796;2022-09-09T08:42:25;6.00;;;1.00;;
7359;SDS011;3720;48.274;7.796;2022-09-09T08:45:06;6.60;;;1.10;;
7359;SDS011;3720;48.274;7.796;2022-09-09T08:48:03;6.97;;;0.98;;
7359;SDS011;3720;48.274;7.796;2022-09-09T08:50:51;8.25;;;1.20;;
7359;SDS011;3720;48.274;7.796;2022-09-09T08:53:27;7.30;;;0.93;;
7359;SDS011;3720;48.274;7.796;2022-09-09T08:56:01;4.43;;;0.88;;
7359;SDS011;3720;48.274;7.796;2022-09-09T08:58:42;3.20;;;0.80;;
7359;SDS011;3720;48.274;7.796;2022-09-09T09:01:23;7.05;;;1.00;;
7359;SDS011;3720;48.274;7.796;2022-09-09T09:04:06;4.22;;;0.88;;
7359;SDS011;3720;48.274;7.796;2022-09-09T09:06:48;3.85;;;0.98;;
7359;SDS011;3720;48.274;7.796;2022-09-09T09:09:29;4.72;;;0.93;;
7359;SDS011;3720;48.274;7.796;2022-09-09T09:12:11;5.18;;;1.00;;
7359;SDS011;3720;48.274;7.796;2022-09-09T09:14:47;7.40;;;1.20;;
7359;SDS011;3720;48.274;7.796;2022-09-09T09:17:20;5.07;;;0.98;;
7359;SDS011;3720;48.274;7.796;2022-09-09T09:19:55;14.55;;;1.25;;
7359;SDS011;3720;48.274;7.796;2022-09-09T09:22:29;11.95;;;1.13;;
7359;SDS011;3720;48.274;7.796;2022-09-09T09:25:10;12.98;;;1.38;;
7359;SDS011;3720;48.274;7.796;2022-09-09T09:27:49;7.65;;;1.35;;
7359;SDS011;3720;48.274;7.796;2022-09-09T09:30:32;12.88;;;1.20;;
7359;SDS011;3720;48.274;7.796;2022-09-09T09:33:11;11.00;;;1.70;;
7359;SDS011;3720;48.274;7.796;2022-09-09T09:35:49;8.82;;;1.40;;
7359;SDS011;3720;48.274;7.796;2022-09-09T09:38:22;6.97;;;1.30;;
7359;SDS011;3720;48.274;7.796;2022-09-09T09:40:57;9.00;;;1.70;;
7359;SDS011;3720;48.274;7.796;2022-09-09T09:43:31;9.68;;;1.75;;
7359;SDS011;3720;48.274;7.796;2022-09-09T09:46:04;8.13;;;1.65;;
7359;SDS011;3720;48.274;7.796;2022-09-09T09:48:55;8.07;;;1.25;;
7359;SDS011;3720;48.274;7.796;2022-09-09T09:51:29;10.48;;;1.65;;
7359;SDS011;3720;48.274;7.796;2022-09-09T09:54:04;7.22;;;1.52;;
7359;SDS011;3720;48.274;7.796;2022-09-09T09:56:50;6.10;;;1.20;;
7359;SDS011;3720;48.274;7.796;2022-09-09T09:59:23;4.72;;;1.20;;
7359;SDS011;3720;48.274;7.796;2022-09-09T10:02:06;3.88;;;1.30;;
7359;SDS011;3720;48.274;7.796;2022-09-09T10:04:49;7.28;;;1.30;;
7359;SDS011;3720;48.274;7.796;2022-09-09T10:07:32;4.75;;;1.17;;
7359;SDS011;3720;48.274;7.796;2022-09-09T10:10:04;4.95;;;1.10;;
7359;SDS011;3720;48.274;7.796;2022-09-09T10:12:46;7.18;;;1.48;;
7359;SDS011;3720;48.274;7.796;2022-09-09T10:15:31;4.40;;;1.30;;
7359;SDS011;3720;48.274;7.796;2022-09-09T10:18:15;6.72;;;1.48;;
7359;SDS011;3720;48.274;7.796;2022-09-09T10:21:03;7.03;;;1.40;;
7359;SDS011;3720;48.274;7.796;2022-09-09T10:30:52;3.20;;;1.00;;
7359;SDS011;3720;48.274;7.796;2022-09-09T10:33:36;6.90;;;1.05;;
7359;SDS011;3720;48.274;7.796;2022-09-09T10:36:18;4.80;;;0.90;;
7359;SDS011;3720;48.274;7.796;2022-09-09T10:38:52;5.93;;;1.05;;
7359;SDS011;3720;48.274;7.796;2022-09-09T10:44:14;4.18;;;0.80;;
7359;SDS011;3720;48.274;7.796;2022-09-09T10:46:55;4.05;;;0.90;;
7359;SDS011;3720;48.274;7.796;2022-09-09T10:49:51;4.55;;;0.80;;
7359;SDS011;3720;48.274;7.796;2022-09-09T10:52:34;3.47;;;1.02;;
7359;SDS011;3720;48.274;7.796;2022-09-09T10:55:14;3.00;;;0.90;;
7359;SDS011;3720;48.274;7.796;2022-09-09T10:57:49;4.35;;;0.95;;
7359;SDS011;3720;48.274;7.796;2022-09-09T11:00:23;1.85;;;0.60;;
7359;SDS011;3720;48.274;7.796;2022-09-09T11:03:00;4.50;;;0.80;;
7359;SDS011;3720;48.274;7.796;2022-09-09T11:05:35;4.15;;;0.93;;
7359;SDS011;3720;48.274;7.796;2022-09-09T11:08:13;3.45;;;0.73;;
7359;SDS011;3720;48.274;7.796;2022-09-09T11:10:51;5.40;;;0.90;;
7359;SDS011;3720;48.274;7.796;2022-09-09T11:13:30;5.50;;;0.85;;
7359;SDS011;3720;48.274;7.796;2022-09-09T11:16:15;4.05;;;0.82;;
7359;SDS011;3720;48.274;7.796;2022-09-09T11:18:57;3.67;;;0.75;;
7359;SDS011;3720;48.274;7.796;2022-09-09T11:21:33;6.78;;;1.10;;
7359;SDS011;3720;48.274;7.796;2022-09-09T11:24:13;5.97;;;0.95;;
7359;SDS011;3720;48.274;7.796;2022-09-09T11:26:53;3.00;;;0.80;;
7359;SDS011;3720;48.274;7.796;2022-09-09T11:29:37;3.13;;;0.75;;
7359;SDS011;3720;48.274;7.796;2022-09-09T11:32:28;3.10;;;0.65;;
7359;SDS011;3720;48.274;7.796;2022-09-09T11:35:21;5.45;;;1.02;;
7359;SDS011;3720;48.274;7.796;2022-09-09T11:38:07;4.82;;;0.60;;
7359;SDS011;3720;48.274;7.796;2022-09-09T11:40:54;3.95;;;0.60;;
7359;SDS011;3720;48.274;7.796;2022-09-09T11:43:30;3.97;;;0.65;;
7359;SDS011;3720;48.274;7.796;2022-09-09T11:46:05;4.13;;;0.60;;
7359;SDS011;3720;48.274;7.796;2022-09-09T11:48:38;1.42;;;0.45;;
7359;SDS011;3720;48.274;7.796;2022-09-09T11:51:25;4.05;;;0.70;;
7359;SDS011;3720;48.274;7.796;2022-09-09T11:53:59;3.10;;;0.80;;
7359;SDS011;3720;48.274;7.796;2022-09-09T11:56:33;3.95;;;0.85;;
7359;SDS011;3720;48.274;7.796;2022-09-09T11:59:19;2.03;;;0.50;;
7359;SDS011;3720;48.274;7.796;2022-09-09T12:01:55;3.05;;;0.60;;
7359;SDS011;3720;48.274;7.796;2022-09-09T12:04:37;4.93;;;0.60;;
7359;SDS011;3720;48.274;7.796;2022-09-09T12:07:23;3.03;;;0.80;;
7359;SDS011;3720;48.274;7.796;2022-09-09T12:10:02;3.72;;;0.60;;
7359;SDS011;3720;48.274;7.796;2022-09-09T12:12:37;2.58;;;0.63;;
7359;SDS011;3720;48.274;7.796;2022-09-09T12:15:17;2.92;;;0.40;;
7359;SDS011;3720;48.274;7.796;2022-09-09T12:17:53;1.58;;;0.50;;
7359;SDS011;3720;48.274;7.796;2022-09-09T12:20:27;3.10;;;0.50;;
7359;SDS011;3720;48.274;7.796;2022-09-09T12:23:11;2.28;;;0.40;;
7359;SDS011;3720;48.274;7.796;2022-09-09T12:25:57;1.00;;;0.30;;
7359;SDS011;3720;48.274;7.796;2022-09-09T12:28:40;2.10;;;0.50;;
7359;SDS011;3720;48.274;7.796;2022-09-09T12:31:20;1.98;;;0.40;;
7359;SDS011;3720;48.274;7.796;2022-09-09T12:34:02;2.17;;;0.32;;
7359;SDS011;3720;48.274;7.796;2022-09-09T12:36:41;4.40;;;0.60;;
7359;SDS011;3720;48.274;7.796;2022-09-09T12:39:19;1.60;;;0.45;;
7359;SDS011;3720;48.274;7.796;2022-09-09T12:42:00;1.75;;;0.38;;
7359;SDS011;3720;48.274;7.796;2022-09-09T12:44:34;3.50;;;0.70;;
7359;SDS011;3720;48.274;7.796;2022-09-09T12:47:06;2.60;;;0.60;;
7359;SDS011;3720;48.274;7.796;2022-09-09T12:49:42;2.28;;;0.47;;
7359;SDS011;3720;48.274;7.796;2022-09-09T12:52:17;4.15;;;0.70;;
7359;SDS011;3720;48.274;7.796;2022-09-09T12:54:56;2.72;;;0.65;;
7359;SDS011;3720;48.274;7.796;2022-09-09T12:57:31;3.17;;;0.60;;
7359;SDS011;3720;48.274;7.796;2022-09-09T13:00:07;2.53;;;0.63;;
7359;SDS011;3720;48.274;7.796;2022-09-09T13:02:45;4.63;;;0.85;;
7359;SDS011;3720;48.274;7.796;2022-09-09T13:05:21;2.33;;;0.60;;
7359;SDS011;3720;48.274;7.796;2022-09-09T13:08:00;3.72;;;0.70;;
7359;SDS011;3720;48.274;7.796;2022-09-09T13:10:35;3.53;;;0.60;;
7359;SDS011;3720;48.274;7.796;2022-09-09T13:13:13;2.65;;;0.68;;
7359;SDS011;3720;48.274;7.796;2022-09-09T13:15:49;3.47;;;0.60;;
7359;SDS011;3720;48.274;7.796;2022-09-09T13:18:23;3.05;;;0.50;;
7359;SDS011;3720;48.274;7.796;2022-09-09T13:20:57;5.30;;;0.77;;
7359;SDS011;3720;48.274;7.796;2022-09-09T13:23:30;3.35;;;0.60;;
7359;SDS011;3720;48.274;7.796;2022-09-09T13:26:05;2.80;;;0.50;;
7359;SDS011;3720;48.274;7.796;2022-09-09T13:28:51;3.60;;;0.52;;
7359;SDS011;3720;48.274;7.796;2022-09-09T13:31:30;1.63;;;0.50;;
7359;SDS011;3720;48.274;7.796;2022-09-09T13:34:10;3.17;;;0.70;;
7359;SDS011;3720;48.274;7.796;2022-09-09T13:36:46;3.42;;;0.70;;
7359;SDS011;3720;48.274;7.796;2022-09-09T13:39:20;3.95;;;0.60;;
7359;SDS011;3720;48.274;7.796;2022-09-09T13:41:53;3.25;;;0.70;;
7359;SDS011;3720;48.274;7.796;2022-09-09T13:44:25;3.35;;;0.60;;
7359;SDS011;3720;48.274;7.796;2022-09-09T13:47:00;2.85;;;0.55;;
7359;SDS011;3720;48.274;7.796;2022-09-09T13:49:34;2.83;;;0.60;;
7359;SDS011;3720;48.274;7.796;2022-09-09T13:52:09;5.93;;;0.70;;
7359;SDS011;3720;48.274;7.796;2022-09-09T13:54:42;5.88;;;0.90;;
7359;SDS011;3720;48.274;7.796;2022-09-09T13:57:19;3.17;;;0.70;;
7359;SDS011;3720;48.274;7.796;2022-09-09T13:59:53;5.78;;;0.70;;
7359;SDS011;3720;48.274;7.796;2022-09-09T14:02:26;4.38;;;0.40;;
7359;SDS011;3720;48.274;7.796;2022-09-09T14:04:58;2.65;;;0.60;;
7359;SDS011;3720;48.274;7.796;2022-09-09T14:07:29;2.42;;;0.52;;
7359;SDS011;3720;48.274;7.796;2022-09-09T14:10:02;2.33;;;0.50;;
7359;SDS011;3720;48.274;7.796;2022-09-09T14:12:35;2.50;;;0.40;;
7359;SDS011;3720;48.274;7.796;2022-09-09T14:15:09;8.13;;;0.95;;
7359;SDS011;3720;48.274;7.796;2022-09-09T14:17:41;3.47;;;0.40;;
7359;SDS011;3720;48.274;7.796;2022-09-09T14:20:14;1.38;;;0.30;;
7359;SDS011;3720;48.274;7.796;2022-09-09T14:22:47;2.03;;;0.50;;
7359;SDS011;3720;48.274;7.796;2022-09-09T14:25:19;8.00;;;0.63;;
7359;SDS011;3720;48.274;7.796;2022-09-09T14:27:52;2.95;;;0.45;;
7359;SDS011;3720;48.274;7.796;2022-09-09T14:30:24;2.97;;;0.55;;
7359;SDS011;3720;48.274;7.796;2022-09-09T14:32:56;5.40;;;0.80;;
7359;SDS011;3720;48.274;7.796;2022-09-09T14:35:28;2.33;;;0.50;;
7359;SDS011;3720;48.274;7.796;2022-09-09T14:38:00;1.13;;;0.30;;
7359;SDS011;3720;48.274;7.796;2022-09-09T14:40:33;7.15;;;0.65;;
7359;SDS011;3720;48.274;7.796;2022-09-09T14:43:09;7.68;;;0.80;;
7359;SDS011;3720;48.274;7.796;2022-09-09T14:45:42;7.72;;;0.90;;
7359;SDS011;3720;48.274;7.796;2022-09-09T14:48:14;4.35;;;0.50;;
7359;SDS011;3720;48.274;7.796;2022-09-09T14:50:46;2.75;;;0.45;;
7359;SDS011;3720;48.274;7.796;2022-09-09T14:53:19;3.60;;;0.63;;
7359;SDS011;3720;48.274;7.796;2022-09-09T14:55:51;3.95;;;0.77;;
7359;SDS011;3720;48.274;7.796;2022-09-09T14:58:24;2.40;;;0.60;;
7359;SDS011;3720;48.274;7.796;2022-09-09T15:01:02;1.45;;;0.30;;
7359;SDS011;3720;48.274;7.796;2022-09-09T15:03:36;2.30;;;0.40;;
7359;SDS011;3720;48.274;7.796;2022-09-09T15:06:08;3.20;;;0.22;;
7359;SDS011;3720;48.274;7.796;2022-09-09T15:08:42;0.30;;;0.20;;
7359;SDS011;3720;48.274;7.796;2022-09-09T15:11:15;1.55;;;0.38;;
7359;SDS011;3720;48.274;7.796;2022-09-09T15:13:50;1.88;;;0.40;;
7359;SDS011;3720;48.274;7.796;2022-09-09T15:16:24;0.60;;;0.35;;
7359;SDS011;3720;48.274;7.796;2022-09-09T15:18:57;13.77;;;0.95;;
7359;SDS011;3720;48.274;7.796;2022-09-09T15:21:30;5.00;;;0.65;;
7359;SDS011;3720;48.274;7.796;2022-09-09T15:24:04;1.48;;;0.38;;
7359;SDS011;3720;48.274;7.796;2022-09-09T15:26:38;7.90;;;0.60;;
7359;SDS011;3720;48.274;7.796;2022-09-09T15:29:11;4.25;;;0.38;;
7359;SDS011;3720;48.274;7.796;2022-09-09T15:31:43;11.20;;;1.00;;
7359;SDS011;3720;48.274;7.796;2022-09-09T15:34:16;4.20;;;0.55;;
7359;SDS011;3720;48.274;7.796;2022-09-09T15:36:48;3.22;;;0.50;;
7359;SDS011;3720;48.274;7.796;2022-09-09T15:39:21;11.70;;;1.10;;
7359;SDS011;3720;48.274;7.796;2022-09-09T15:41:53;3.78;;;0.70;;
7359;SDS011;3720;48.274;7.796;2022-09-09T15:44:27;1.73;;;0.40;;
7359;SDS011;3720;48.274;7.796;2022-09-09T15:46:59;2.58;;;0.40;;
7359;SDS011;3720;48.274;7.796;2022-09-09T15:49:31;3.30;;;0.43;;
7359;SDS011;3720;48.274;7.796;2022-09-09T15:52:02;4.32;;;0.60;;
7359;SDS011;3720;48.274;7.796;2022-09-09T15:54:35;2.67;;;0.60;;
7359;SDS011;3720;48.274;7.796;2022-09-09T15:57:10;3.30;;;0.60;;
7359;SDS011;3720;48.274;7.796;2022-09-09T15:59:45;1.38;;;0.52;;
7359;SDS011;3720;48.274;7.796;2022-09-09T16:02:18;1.65;;;0.45;;
7359;SDS011;3720;48.274;7.796;2022-09-09T16:04:50;3.20;;;0.52;;
7359;SDS011;3720;48.274;7.796;2022-09-09T16:07:21;1.88;;;0.52;;
7359;SDS011;3720;48.274;7.796;2022-09-09T16:09:54;5.20;;;0.65;;
7359;SDS011;3720;48.274;7.796;2022-09-09T16:12:26;1.48;;;0.40;;
7359;SDS011;3720;48.274;7.796;2022-09-09T16:14:59;10.23;;;0.82;;
7359;SDS011;3720;48.274;7.796;2022-09-09T16:17:31;4.20;;;0.68;;
7359;SDS011;3720;48.274;7.796;2022-09-09T16:20:07;6.57;;;0.95;;